Time;durP1;ratioP1;P1;durP2;ratioP2;P2;SDS_P1;SDS_P2;PMS_P1;PMS_P2;Temp;Humidity;BMP_temperature;BMP_pressure;BME280_temperature;BME280_humidity;BME280_pressure;Samples;Min_cycle;Max_cycle;Signal;HPM_P1;HPM_P2
2021/06/18 00:01:03;;;;;;;4.82;2.88;;;23.50;76.00;;;;;;5028518;28;20132;-82
2021/06/18 00:03:29;;;;;;;2.97;2.13;;;23.50;75.70;;;;;;5021129;28;20453;-81
2021/06/18 00:05:54;;;;;;;2.83;1.80;;;23.50;75.80;;;;;;5019738;28;20046;-81
2021/06/18 00:08:20;;;;;;;4.38;2.05;;;23.40;75.60;;;;;;5018002;28;20044;-81
2021/06/18 00:10:45;;;;;;;3.53;2.50;;;23.40;75.70;;;;;;5033717;28;20051;-82
2021/06/18 00:13:11;;;;;;;2.65;1.98;;;23.40;75.80;;;;;;5018379;28;20037;-82
2021/06/18 00:15:36;;;;;;;2.65;2.38;;;23.40;75.90;;;;;;5023094;28;20044;-79
2021/06/18 00:18:02;;;;;;;4.55;2.17;;;23.40;75.90;;;;;;5019086;28;20037;-80
2021/06/18 00:20:27;;;;;;;4.63;2.25;;;23.30;76.10;;;;;;5018284;28;20046;-80
2021/06/18 00:22:53;;;;;;;4.75;2.00;;;23.30;76.30;;;;;;5029931;28;20084;-80
2021/06/18 00:25:18;;;;;;;3.03;2.13;;;23.30;76.40;;;;;;5025460;28;20057;-79
2021/06/18 00:27:44;;;;;;;2.85;2.50;;;23.30;76.50;;;;;;5029294;28;20045;-81
2021/06/18 00:30:10;;;;;;;4.13;2.60;;;23.20;76.60;;;;;;5031284;28;20034;-80
2021/06/18 00:32:36;;;;;;;4.50;2.17;;;23.20;76.80;;;;;;5023981;28;20042;-80
2021/06/18 00:35:02;;;;;;;2.63;2.30;;;23.20;77.30;;;;;;5034253;28;20056;-80
2021/06/18 00:37:27;;;;;;;3.60;2.28;;;23.10;77.70;;;;;;5031421;28;20034;-81
2021/06/18 00:39:53;;;;;;;3.40;2.50;;;23.20;78.80;;;;;;5034089;28;20107;-81
2021/06/18 00:42:18;;;;;;;2.60;2.22;;;23.10;78.30;;;;;;5030056;28;20045;-80
2021/06/18 00:44:44;;;;;;;2.70;2.45;;;23.00;78.20;;;;;;5031209;28;20044;-80
2021/06/18 00:47:17;;;;;;;4.63;2.03;;;23.00;78.20;;;;;;5027421;28;20069;-80
2021/06/18 00:49:43;;;;;;;2.97;2.10;;;22.90;78.70;;;;;;5017660;28;20076;-80
2021/06/18 00:52:08;;;;;;;3.67;2.22;;;22.90;78.70;;;;;;5023787;28;20073;-82
2021/06/18 00:54:36;;;;;;;3.42;2.20;;;22.90;78.90;;;;;;5020199;28;20182;-80
2021/06/18 00:57:02;;;;;;;3.03;2.13;;;22.80;78.80;;;;;;5031443;28;20033;-80
2021/06/18 00:59:28;;;;;;;2.35;2.10;;;22.80;78.70;;;;;;5032444;28;20038;-80
2021/06/18 01:01:54;;;;;;;2.20;2.00;;;22.80;78.90;;;;;;5033696;28;20045;-80
2021/06/18 01:04:26;;;;;;;3.67;2.33;;;22.70;79.30;;;;;;5024947;28;20038;-81
2021/06/18 01:07:01;;;;;;;2.47;2.13;;;22.70;79.40;;;;;;5032058;28;20041;-81
2021/06/18 01:09:31;;;;;;;4.82;2.20;;;22.60;79.10;;;;;;5024546;28;20107;-80
2021/06/18 01:12:02;;;;;;;2.60;2.28;;;22.60;79.20;;;;;;5032574;28;20080;-80
2021/06/18 01:14:56;;;;;;;4.65;2.40;;;22.60;79.20;;;;;;5034152;28;20044;-81
2021/06/18 01:17:37;;;;;;;3.08;2.30;;;22.50;79.40;;;;;;5028693;28;20273;-80
2021/06/18 01:20:41;;;;;;;3.47;2.00;;;22.50;79.60;;;;;;5026751;28;20041;-82
2021/06/18 01:23:27;;;;;;;2.63;2.08;;;22.50;80.10;;;;;;5041851;28;20045;-81
2021/06/18 01:26:11;;;;;;;2.45;2.13;;;22.40;80.80;;;;;;5027410;28;20033;-80
2021/06/18 01:28:47;;;;;;;3.40;2.28;;;22.40;81.10;;;;;;5030335;28;20124;-81
2021/06/18 01:31:17;;;;;;;2.58;2.15;;;22.30;80.90;;;;;;5029684;28;20128;-81
2021/06/18 01:33:47;;;;;;;2.78;2.33;;;22.30;81.30;;;;;;5019495;28;20041;-81
2021/06/18 01:36:16;;;;;;;5.43;2.17;;;22.30;81.70;;;;;;5023207;28;20042;-81
2021/06/18 01:38:45;;;;;;;4.80;2.30;;;22.20;82.10;;;;;;5024675;28;20103;-80
2021/06/18 01:41:15;;;;;;;3.65;2.58;;;22.20;83.00;;;;;;5032947;28;20037;-81
2021/06/18 01:43:43;;;;;;;3.88;2.75;;;22.10;82.90;;;;;;5028864;28;20037;-80
2021/06/18 01:46:12;;;;;;;3.38;2.47;;;22.00;83.20;;;;;;5015710;28;20100;-81
2021/06/18 01:48:39;;;;;;;7.43;2.90;;;22.00;83.50;;;;;;5026384;28;20679;-81
2021/06/18 01:51:05;;;;;;;3.25;2.83;;;21.90;83.90;;;;;;5026272;28;20045;-81
2021/06/18 01:53:32;;;;;;;5.75;2.95;;;21.90;84.30;;;;;;5034258;28;20400;-81
2021/06/18 01:55:58;;;;;;;3.50;2.78;;;21.80;84.60;;;;;;5035186;28;20068;-82
2021/06/18 01:58:25;;;;;;;4.50;2.70;;;21.80;84.80;;;;;;5028133;28;20059;-81
2021/06/18 02:00:52;;;;;;;4.68;2.83;;;21.70;85.10;;;;;;5033184;28;20042;-81
2021/06/18 02:03:25;;;;;;;5.10;3.53;;;21.70;85.30;;;;;;5024813;28;20049;-80
2021/06/18 02:05:54;;;;;;;4.38;2.63;;;21.60;85.90;;;;;;5019324;28;20096;-81
2021/06/18 02:08:21;;;;;;;3.55;3.10;;;21.50;86.30;;;;;;5025425;28;20121;-83
2021/06/18 02:10:49;;;;;;;3.28;2.78;;;21.50;86.60;;;;;;5020009;28;20042;-81
2021/06/18 02:13:17;;;;;;;3.20;2.80;;;21.50;87.00;;;;;;5024892;28;20033;-81
2021/06/18 02:15:46;;;;;;;4.18;2.50;;;21.40;87.10;;;;;;5031927;28;20125;-81
2021/06/18 02:18:14;;;;;;;3.67;3.10;;;21.40;86.90;;;;;;5035129;28;20029;-81
2021/06/18 02:20:41;;;;;;;3.70;2.78;;;21.40;87.30;;;;;;5031140;28;20041;-81
2021/06/18 02:23:09;;;;;;;3.72;3.17;;;21.40;87.30;;;;;;5032642;28;20298;-81
2021/06/18 02:25:37;;;;;;;3.42;3.13;;;21.30;87.30;;;;;;5024864;28;20047;-80
2021/06/18 02:28:04;;;;;;;3.20;2.80;;;21.30;87.50;;;;;;5033440;28;20420;-80
2021/06/18 02:30:29;;;;;;;5.05;2.97;;;21.20;87.70;;;;;;5025272;28;20108;-80
2021/06/18 02:32:58;;;;;;;3.17;2.60;;;21.20;87.90;;;;;;5020988;28;20050;-81
2021/06/18 02:35:23;;;;;;;5.63;3.00;;;21.20;88.00;;;;;;5023296;28;20043;-80
2021/06/18 02:37:49;;;;;;;3.22;2.40;;;21.20;88.10;;;;;;5037866;28;20030;-80
2021/06/18 02:40:15;;;;;;;5.68;3.15;;;21.20;88.10;;;;;;5033825;28;20369;-81
2021/06/18 02:42:41;;;;;;;4.82;2.80;;;21.10;88.00;;;;;;5028981;28;20034;-81
2021/06/18 02:45:07;;;;;;;3.05;2.65;;;21.10;87.70;;;;;;5023393;28;20361;-80
2021/06/18 02:47:45;;;;;;;3.60;2.92;;;21.10;87.80;;;;;;5026576;28;20333;-80
2021/06/18 02:50:24;;;;;;;5.55;2.47;;;21.10;87.70;;;;;;5026049;28;20220;-81
2021/06/18 02:53:05;;;;;;;3.65;2.65;;;21.10;87.70;;;;;;5029983;28;20044;-80
2021/06/18 02:55:40;;;;;;;3.38;3.08;;;21.10;87.90;;;;;;5024941;28;20389;-81
2021/06/18 02:58:14;;;;;;;5.30;2.85;;;21.10;88.00;;;;;;5022118;28;20065;-81
2021/06/18 03:00:41;;;;;;;4.75;2.70;;;21.10;88.10;;;;;;5039966;28;20075;-80
2021/06/18 03:03:09;;;;;;;3.47;3.15;;;21.10;88.40;;;;;;5023920;28;20042;-80
2021/06/18 03:05:35;;;;;;;3.20;2.78;;;21.00;88.40;;;;;;5027842;28;20183;-80
2021/06/18 03:08:08;;;;;;;4.18;2.85;;;21.00;88.30;;;;;;5021977;28;20132;-81
2021/06/18 03:10:37;;;;;;;3.40;2.42;;;21.00;88.30;;;;;;5026665;28;20294;-81
2021/06/18 03:13:09;;;;;;;4.00;3.25;;;21.00;88.60;;;;;;5033904;28;20052;-81
2021/06/18 03:15:37;;;;;;;3.92;3.40;;;21.00;89.30;;;;;;5027625;28;20041;-81
2021/06/18 03:18:04;;;;;;;5.90;3.05;;;21.00;89.00;;;;;;5031606;28;20336;-81
2021/06/18 03:20:34;;;;;;;4.80;3.30;;;21.00;88.90;;;;;;5049487;28;20038;-81
2021/06/18 03:23:02;;;;;;;7.00;3.22;;;21.00;89.20;;;;;;5028910;28;20034;-80
2021/06/18 03:25:32;;;;;;;3.35;2.95;;;20.90;89.10;;;;;;5031768;28;20037;-81
2021/06/18 03:27:58;;;;;;;4.95;3.38;;;21.00;89.30;;;;;;5036780;28;20361;-80
2021/06/18 03:30:25;;;;;;;4.25;2.97;;;21.00;89.00;;;;;;5027852;28;20045;-80
2021/06/18 03:32:52;;;;;;;6.47;3.33;;;21.00;88.60;;;;;;5041882;28;20781;-81
2021/06/18 03:35:20;;;;;;;3.80;2.90;;;20.90;88.50;;;;;;5033540;28;20055;-80
2021/06/18 03:37:46;;;;;;;4.65;2.72;;;20.90;88.60;;;;;;5035985;28;20119;-81
2021/06/18 03:40:13;;;;;;;6.22;3.60;;;20.90;88.90;;;;;;5030501;28;20080;-81
2021/06/18 03:42:39;;;;;;;4.68;3.17;;;20.90;89.00;;;;;;5029423;28;20103;-81
2021/06/18 03:45:07;;;;;;;8.00;3.47;;;20.90;89.20;;;;;;5034469;28;20073;-80
2021/06/18 03:47:33;;;;;;;5.30;3.22;;;20.90;89.70;;;;;;5033545;28;20036;-80
2021/06/18 03:50:00;;;;;;;6.95;3.67;;;20.80;89.80;;;;;;5020382;28;20129;-80
2021/06/18 03:52:26;;;;;;;3.83;3.17;;;20.80;90.00;;;;;;5031567;28;20355;-81
2021/06/18 03:54:51;;;;;;;5.03;2.85;;;20.80;90.20;;;;;;5036599;28;20033;-81
2021/06/18 03:57:19;;;;;;;5.15;3.20;;;20.80;90.20;;;;;;5031188;28;20103;-81
2021/06/18 03:59:46;;;;;;;3.30;2.75;;;20.80;90.20;;;;;;5024275;28;20030;-82
2021/06/18 04:02:14;;;;;;;3.20;2.90;;;20.80;90.20;;;;;;5034359;28;20037;-81
2021/06/18 04:04:41;;;;;;;3.58;3.10;;;20.80;90.20;;;;;;5029999;28;20046;-79
2021/06/18 04:07:07;;;;;;;8.10;3.38;;;20.80;90.40;;;;;;5057473;28;20044;-80
2021/06/18 04:09:33;;;;;;;4.65;3.40;;;20.80;90.20;;;;;;5038423;28;20401;-80
2021/06/18 04:12:00;;;;;;;4.22;2.78;;;20.80;90.20;;;;;;5033773;28;20132;-79
2021/06/18 04:14:27;;;;;;;5.03;3.20;;;20.80;90.40;;;;;;5032347;28;20037;-80
2021/06/18 04:16:52;;;;;;;6.85;3.58;;;20.80;90.60;;;;;;5034294;28;20037;-80
2021/06/18 04:19:18;;;;;;;3.70;3.00;;;20.80;90.60;;;;;;5030125;28;20044;-81
2021/06/18 04:21:45;;;;;;;7.38;3.65;;;20.80;90.60;;;;;;5020200;28;20084;-81
2021/06/18 04:24:15;;;;;;;4.30;3.47;;;20.90;90.40;;;;;;5044017;28;20037;-81
2021/06/18 04:26:42;;;;;;;3.60;3.15;;;20.90;90.40;;;;;;5017748;28;20034;-80
2021/06/18 04:29:08;;;;;;;6.93;3.22;;;20.90;90.40;;;;;;5027020;28;20313;-80
2021/06/18 04:31:35;;;;;;;7.05;2.80;;;20.90;90.20;;;;;;5028621;28;20144;-80
2021/06/18 04:34:01;;;;;;;4.13;3.28;;;21.00;90.00;;;;;;5030484;28;20116;-81
2021/06/18 04:36:26;;;;;;;4.65;3.22;;;21.00;89.80;;;;;;5030651;28;20370;-80
2021/06/18 04:38:52;;;;;;;9.75;2.92;;;21.00;90.00;;;;;;5032263;28;20087;-80
2021/06/18 04:41:18;;;;;;;3.80;2.33;;;21.10;89.80;;;;;;5027145;28;20116;-80
2021/06/18 04:43:43;;;;;;;3.63;2.85;;;21.10;89.40;;;;;;5022865;28;20125;-81
2021/06/18 04:46:09;;;;;;;5.30;3.13;;;21.20;89.50;;;;;;5026266;28;20041;-79
2021/06/18 04:48:35;;;;;;;3.38;2.50;;;21.30;89.30;;;;;;5024421;28;20068;-80
2021/06/18 04:51:00;;;;;;;3.17;2.70;;;21.30;87.50;;;;;;5024331;28;20417;-81
2021/06/18 04:53:26;;;;;;;6.72;3.10;;;21.40;87.40;;;;;;5020230;28;20044;-82
2021/06/18 04:55:52;;;;;;;3.95;2.50;;;21.50;87.10;;;;;;5023264;28;20069;-80
2021/06/18 04:58:19;;;;;;;4.55;2.50;;;21.60;87.30;;;;;;5030602;28;20336;-80
2021/06/18 05:00:44;;;;;;;6.78;3.22;;;21.60;87.50;;;;;;5021344;28;20385;-80
2021/06/18 05:03:10;;;;;;;7.55;3.10;;;21.70;88.00;;;;;;5021412;28;20060;-80
2021/06/18 05:05:36;;;;;;;5.20;3.03;;;21.70;87.00;;;;;;5025210;28;20412;-80
2021/06/18 05:08:01;;;;;;;4.40;2.72;;;21.80;86.60;;;;;;5023551;28;20313;-80
2021/06/18 05:10:27;;;;;;;5.07;3.20;;;21.80;86.40;;;;;;5026258;28;20073;-80
2021/06/18 05:12:53;;;;;;;5.80;2.53;;;21.90;86.60;;;;;;5033463;28;20029;-80
2021/06/18 05:15:19;;;;;;;7.15;2.47;;;22.00;85.20;;;;;;5032224;28;20270;-80
2021/06/18 05:17:45;;;;;;;3.65;2.35;;;22.10;85.80;;;;;;5033802;28;20041;-80
2021/06/18 05:20:12;;;;;;;6.75;2.40;;;22.10;86.00;;;;;;5032427;28;20047;-79
2021/06/18 05:22:38;;;;;;;5.85;2.63;;;22.20;85.50;;;;;;5034089;28;20447;-82
2021/06/18 05:25:04;;;;;;;6.85;2.40;;;22.30;85.70;;;;;;5031836;28;20041;-80
2021/06/18 05:27:29;;;;;;;5.30;2.40;;;22.30;85.80;;;;;;5031317;28;20344;-80
2021/06/18 05:29:55;;;;;;;7.55;2.30;;;22.40;85.50;;;;;;5031880;28;20037;-80
2021/06/18 05:32:20;;;;;;;7.50;2.90;;;22.50;85.40;;;;;;5034199;28;20128;-80
2021/06/18 05:34:46;;;;;;;9.50;3.08;;;22.50;85.10;;;;;;5033297;28;20052;-80
2021/06/18 05:37:13;;;;;;;4.70;2.15;;;22.70;84.50;;;;;;5034155;28;20033;-80
2021/06/18 05:39:40;;;;;;;10.32;2.80;;;22.70;84.60;;;;;;5032383;28;20412;-80
2021/06/18 05:42:05;;;;;;;4.65;2.90;;;22.80;83.50;;;;;;5032224;28;20037;-80
2021/06/18 05:44:31;;;;;;;3.97;2.60;;;22.90;83.00;;;;;;5032747;28;20051;-80
2021/06/18 05:46:56;;;;;;;9.82;2.60;;;23.00;83.30;;;;;;5033201;28;20207;-81
2021/06/18 05:49:22;;;;;;;6.88;2.63;;;23.00;82.60;;;;;;5033678;28;20049;-81
2021/06/18 05:51:47;;;;;;;5.75;2.97;;;23.10;83.30;;;;;;5032874;28;20049;-80
2021/06/18 05:54:14;;;;;;;4.78;2.03;;;23.20;82.20;;;;;;5032765;28;20052;-80
2021/06/18 05:56:40;;;;;;;9.90;2.80;;;23.30;82.40;;;;;;5033089;28;20033;-80
2021/06/18 05:59:06;;;;;;;7.97;2.92;;;23.40;82.30;;;;;;5032698;28;20082;-80
2021/06/18 06:01:31;;;;;;;5.40;2.53;;;23.50;82.80;;;;;;5032929;28;20048;-79
2021/06/18 06:03:57;;;;;;;4.30;2.42;;;23.50;83.10;;;;;;5033875;28;20037;-80
2021/06/18 06:06:23;;;;;;;4.47;2.30;;;23.60;82.60;;;;;;5033336;28;20037;-79
2021/06/18 06:08:52;;;;;;;3.67;2.42;;;23.60;82.80;;;;;;5033678;28;20045;-80
2021/06/18 06:11:18;;;;;;;2.85;2.38;;;23.70;82.40;;;;;;5032123;28;20049;-79
2021/06/18 06:13:44;;;;;;;4.53;2.58;;;23.80;82.70;;;;;;5034057;28;20034;-79
2021/06/18 06:16:10;;;;;;;4.68;2.72;;;23.90;83.20;;;;;;5032666;28;20420;-79
2021/06/18 06:18:37;;;;;;;4.85;2.55;;;24.00;82.60;;;;;;5029931;28;20045;-79
2021/06/18 06:21:02;;;;;;;4.47;2.33;;;24.10;82.60;;;;;;5036612;28;20091;-82
2021/06/18 06:23:28;;;;;;;3.10;2.40;;;24.30;81.50;;;;;;5025719;28;20037;-82
2021/06/18 06:25:53;;;;;;;5.57;2.58;;;24.50;81.00;;;;;;5033731;28;20049;-82
2021/06/18 06:28:19;;;;;;;4.47;2.22;;;24.70;79.40;;;;;;5031812;28;20125;-82
2021/06/18 06:30:44;;;;;;;3.63;2.13;;;25.10;78.70;;;;;;5031635;28;20480;-80
2021/06/18 06:33:10;;;;;;;2.60;2.22;;;25.20;79.20;;;;;;5030400;28;20117;-80
2021/06/18 06:35:36;;;;;;;4.80;2.20;;;25.30;79.00;;;;;;5029286;28;20465;-80
2021/06/18 06:38:01;;;;;;;7.30;3.20;;;25.40;79.80;;;;;;5024499;28;20069;-80
2021/06/18 06:40:27;;;;;;;3.45;2.45;;;25.40;79.30;;;;;;5037074;28;20042;-81
2021/06/18 06:42:52;;;;;;;6.05;2.08;;;25.40;80.00;;;;;;5028669;28;20037;-81
2021/06/18 06:45:18;;;;;;;3.88;2.80;;;25.50;78.70;;;;;;5028477;28;20041;-80
2021/06/18 06:47:46;;;;;;;4.28;2.30;;;25.50;79.70;;;;;;5034215;28;20071;-82
2021/06/18 06:50:12;;;;;;;4.22;2.38;;;25.50;79.90;;;;;;5036352;28;20037;-81
2021/06/18 06:52:38;;;;;;;5.97;2.38;;;25.60;78.60;;;;;;5035965;28;20115;-81
2021/06/18 06:55:05;;;;;;;3.88;2.20;;;25.60;79.40;;;;;;5036509;28;20328;-80
2021/06/18 06:57:31;;;;;;;7.20;2.17;;;25.70;78.50;;;;;;5027867;28;20123;-80
2021/06/18 06:59:57;;;;;;;3.97;2.92;;;25.70;79.10;;;;;;5024984;28;20153;-79
2021/06/18 07:02:22;;;;;;;6.18;2.38;;;25.80;78.90;;;;;;5023454;28;20125;-81
2021/06/18 07:04:48;;;;;;;3.63;2.22;;;25.90;79.10;;;;;;5032017;28;20049;-82
2021/06/18 07:07:13;;;;;;;4.28;2.42;;;26.00;79.40;;;;;;5036411;28;20080;-81
2021/06/18 07:09:40;;;;;;;4.80;2.40;;;26.10;78.40;;;;;;5035799;28;20045;-81
2021/06/18 07:12:06;;;;;;;7.10;2.38;;;26.20;78.50;;;;;;5041601;28;20037;-79
2021/06/18 07:14:33;;;;;;;2.95;1.92;;;26.40;77.40;;;;;;5041620;28;20033;-80
2021/06/18 07:16:58;;;;;;;4.65;2.30;;;26.50;76.50;;;;;;5035884;28;20385;-82
2021/06/18 07:19:24;;;;;;;4.35;2.33;;;26.60;77.30;;;;;;5035572;28;20045;-81
2021/06/18 07:21:49;;;;;;;6.25;2.20;;;26.80;76.70;;;;;;5034828;28;20353;-81
2021/06/18 07:24:16;;;;;;;11.55;2.92;;;27.00;76.60;;;;;;5034027;28;20144;-81
2021/06/18 07:26:41;;;;;;;4.63;1.77;;;27.20;75.70;;;;;;5036385;28;20045;-81
2021/06/18 07:29:07;;;;;;;6.40;1.95;;;27.30;77.00;;;;;;5035389;28;20087;-80
2021/06/18 07:31:33;;;;;;;5.03;2.00;;;27.40;76.50;;;;;;5037783;28;20095;-86
2021/06/18 07:33:58;;;;;;;3.92;2.40;;;27.50;75.40;;;;;;5029766;28;20099;-84
2021/06/18 07:36:24;;;;;;;3.60;2.42;;;27.70;74.80;;;;;;5017653;28;20409;-82
2021/06/18 07:38:50;;;;;;;3.72;2.35;;;27.90;75.60;;;;;;5024679;28;20316;-82
2021/06/18 07:41:16;;;;;;;4.45;2.33;;;28.00;74.70;;;;;;5034965;28;20583;-82
2021/06/18 07:43:41;;;;;;;10.60;2.42;;;28.10;74.50;;;;;;5016372;28;20095;-82
2021/06/18 07:46:07;;;;;;;2.88;1.90;;;28.20;74.80;;;;;;5020327;28;20041;-81
2021/06/18 07:48:32;;;;;;;5.45;2.47;;;28.40;74.00;;;;;;5015159;28;20041;-79
2021/06/18 07:50:58;;;;;;;2.45;1.85;;;28.50;72.90;;;;;;5016155;28;20447;-81
2021/06/18 07:53:23;;;;;;;4.97;2.15;;;28.60;72.50;;;;;;5020375;28;20440;-79
2021/06/18 07:55:51;;;;;;;3.20;2.22;;;28.70;72.30;;;;;;5022531;28;20080;-80
2021/06/18 07:58:17;;;;;;;3.42;2.38;;;28.80;70.70;;;;;;5024786;28;20124;-79
2021/06/18 08:00:42;;;;;;;5.03;2.08;;;29.00;70.20;;;;;;5032313;28;20152;-79
2021/06/18 08:03:08;;;;;;;2.40;2.08;;;29.10;71.20;;;;;;5033210;28;20095;-80
2021/06/18 08:05:34;;;;;;;7.25;2.58;;;29.20;71.00;;;;;;5024328;28;20034;-79
2021/06/18 08:08:00;;;;;;;6.00;1.80;;;29.40;71.20;;;;;;5032660;28;20090;-80
2021/06/18 08:10:26;;;;;;;3.05;2.13;;;29.50;71.20;;;;;;5031852;28;20078;-79
2021/06/18 08:12:52;;;;;;;7.15;2.72;;;29.60;70.70;;;;;;5025159;28;20095;-80
2021/06/18 08:15:18;;;;;;;4.68;1.90;;;29.70;72.10;;;;;;5029653;28;20099;-80
2021/06/18 08:17:45;;;;;;;2.25;2.03;;;29.80;72.50;;;;;;5033154;28;20116;-80
2021/06/18 08:20:13;;;;;;;5.25;2.72;;;30.00;70.40;;;;;;5034202;28;20033;-80
2021/06/18 08:22:39;;;;;;;3.75;2.47;;;30.00;70.50;;;;;;5033835;28;20068;-80
2021/06/18 08:25:05;;;;;;;2.97;1.73;;;30.10;70.60;;;;;;5033139;28;20345;-82
2021/06/18 08:27:31;;;;;;;3.45;2.20;;;30.20;70.50;;;;;;5034500;28;20080;-81
2021/06/18 08:29:56;;;;;;;5.00;2.08;;;30.20;71.10;;;;;;5033768;28;20127;-81
2021/06/18 08:32:22;;;;;;;3.78;2.60;;;30.30;69.70;;;;;;5034989;28;20041;-80
2021/06/18 08:34:48;;;;;;;3.67;2.20;;;30.30;70.90;;;;;;5034292;28;20040;-81
2021/06/18 08:37:13;;;;;;;7.20;3.33;;;30.40;70.60;;;;;;5034852;28;20037;-80
2021/06/18 08:39:39;;;;;;;4.85;2.65;;;30.40;69.10;;;;;;5034568;28;20120;-80
2021/06/18 08:42:05;;;;;;;7.72;2.10;;;30.50;72.10;;;;;;5034431;28;20045;-83
2021/06/18 08:44:31;;;;;;;2.95;2.17;;;30.60;70.60;;;;;;5034164;28;20039;-80
2021/06/18 08:46:56;;;;;;;4.35;2.38;;;30.70;69.60;;;;;;5033657;28;20371;-80
2021/06/18 08:49:23;;;;;;;2.45;2.13;;;30.70;70.30;;;;;;5034044;28;20048;-81
2021/06/18 08:51:49;;;;;;;3.30;2.17;;;30.80;69.10;;;;;;5034316;28;20033;-79
2021/06/18 08:54:15;;;;;;;2.35;2.05;;;30.90;68.60;;;;;;5034042;28;20073;-80
2021/06/18 08:56:41;;;;;;;3.38;2.00;;;31.00;69.10;;;;;;5034234;28;20389;-79
2021/06/18 08:59:07;;;;;;;5.82;2.03;;;31.00;70.60;;;;;;5033653;28;20420;-79
2021/06/18 09:01:32;;;;;;;2.78;2.08;;;31.20;68.90;;;;;;5034503;28;20364;-80
2021/06/18 09:04:05;;;;;;;4.10;2.25;;;31.30;70.00;;;;;;5034326;28;20087;-79
2021/06/18 09:06:43;;;;;;;5.90;2.60;;;31.40;69.50;;;;;;5033983;28;20107;-80
2021/06/18 09:09:19;;;;;;;5.05;1.90;;;31.50;68.90;;;;;;5033674;28;20042;-80
2021/06/18 09:11:49;;;;;;;6.07;2.13;;;31.60;69.10;;;;;;5032403;28;20511;-80
2021/06/18 09:14:20;;;;;;;7.10;2.20;;;31.70;65.50;;;;;;5034359;28;20393;-80
2021/06/18 09:17:01;;;;;;;6.43;1.90;;;31.80;67.20;;;;;;5031888;28;20041;-80
2021/06/18 09:19:26;;;;;;;3.40;2.15;;;32.00;65.40;;;;;;5025427;28;20372;-81
2021/06/18 09:22:16;;;;;;;6.72;2.47;;;32.10;66.50;;;;;;5022993;28;20107;-80
2021/06/18 09:25:02;;;;;;;3.50;1.90;;;32.20;66.30;;;;;;5039593;28;20033;-79
2021/06/18 09:27:50;;;;;;;3.40;2.25;;;32.20;64.60;;;;;;5030084;28;20045;-79
2021/06/18 09:30:21;;;;;;;2.92;1.73;;;32.30;66.80;;;;;;5026367;28;20045;-79
2021/06/18 09:33:00;;;;;;;3.10;1.88;;;32.40;64.70;;;;;;5019836;28;20034;-80
2021/06/18 09:35:26;;;;;;;3.22;2.03;;;32.60;64.30;;;;;;5029206;28;20037;-80
2021/06/18 09:37:57;;;;;;;7.45;2.08;;;32.70;65.20;;;;;;5028832;28;20042;-80
2021/06/18 09:40:23;;;;;;;3.03;1.83;;;32.80;62.70;;;;;;5032904;28;20044;-81
2021/06/18 09:42:58;;;;;;;3.13;1.88;;;32.90;65.30;;;;;;5032942;28;20037;-80
2021/06/18 09:45:25;;;;;;;3.75;2.10;;;33.00;60.50;;;;;;5032568;28;20038;-80
2021/06/18 09:47:52;;;;;;;3.15;2.67;;;33.00;65.00;;;;;;5033272;28;20041;-80
2021/06/18 09:50:28;;;;;;;9.27;2.38;;;33.10;64.10;;;;;;5063870;28;20064;-79
2021/06/18 09:53:16;;;;;;;3.33;1.83;;;33.20;61.90;;;;;;5033224;28;20051;-79
2021/06/18 09:55:47;;;;;;;3.78;2.08;;;33.30;62.60;;;;;;5033065;28;20033;-80
2021/06/18 09:58:29;;;;;;;4.72;2.30;;;33.40;60.20;;;;;;5033124;28;20047;-81
2021/06/18 10:01:13;;;;;;;;;;;33.50;59.40;;;;;;5033397;28;20048;-79
2021/06/18 10:04:15;;;;;;;2.83;1.90;;;33.60;59.00;;;;;;5030295;28;19953;-80
2021/06/18 10:06:42;;;;;;;4.95;1.85;;;33.60;58.40;;;;;;5032912;28;20128;-79
2021/06/18 10:09:13;;;;;;;10.13;1.80;;;33.60;62.40;;;;;;5033398;28;20301;-79
2021/06/18 10:11:43;;;;;;;2.25;1.70;;;33.60;59.40;;;;;;5033794;28;20128;-80
2021/06/18 10:14:09;;;;;;;6.07;2.00;;;33.70;58.40;;;;;;5035202;28;20042;-82
2021/06/18 10:16:35;;;;;;;4.30;1.27;;;33.80;57.30;;;;;;5029339;28;20052;-80
2021/06/18 10:19:02;;;;;;;3.30;1.90;;;33.90;57.70;;;;;;5034560;28;20041;-80
2021/06/18 10:21:31;;;;;;;3.15;1.92;;;33.90;59.40;;;;;;5035271;28;20044;-80
2021/06/18 10:24:00;;;;;;;4.00;1.77;;;34.00;59.90;;;;;;5035898;28;20048;-80
2021/06/18 10:26:27;;;;;;;4.70;1.73;;;34.00;57.10;;;;;;5034587;28;20037;-80
2021/06/18 10:28:59;;;;;;;3.55;1.67;;;34.10;55.50;;;;;;5025043;28;20045;-80
2021/06/18 10:31:31;;;;;;;1.88;1.45;;;34.20;53.50;;;;;;5028603;28;20486;-81
2021/06/18 10:34:17;;;;;;;;;;;34.30;56.40;;;;;;5030009;28;20037;-81
2021/06/18 10:36:43;;;;;;;1.75;1.58;;;34.30;53.90;;;;;;5042840;28;20067;-80
2021/06/18 10:39:16;;;;;;;4.47;1.75;;;34.40;54.50;;;;;;5026140;28;20053;-80
2021/06/18 10:41:45;;;;;;;4.60;1.83;;;34.40;56.00;;;;;;5028551;28;20187;-81
2021/06/18 10:44:11;;;;;;;2.28;1.88;;;34.40;56.60;;;;;;5032481;28;20076;-82
2021/06/18 10:46:37;;;;;;;3.00;1.50;;;34.60;55.80;;;;;;5031710;28;20041;-82
2021/06/18 10:49:07;;;;;;;2.17;1.63;;;34.60;56.20;;;;;;5027920;28;20619;-82
2021/06/18 10:51:48;;;;;;;4.43;1.77;;;34.70;52.10;;;;;;5027952;28;20487;-80
2021/06/18 10:54:33;;;;;;;4.57;1.65;;;34.60;51.10;;;;;;5025475;28;20724;-81
2021/06/18 10:57:01;;;;;;;4.45;1.42;;;34.70;54.30;;;;;;5032300;28;20052;-82
2021/06/18 10:59:57;;;;;;;4.43;1.90;;;34.80;52.20;;;;;;5030508;28;20037;-80
2021/06/18 11:02:33;;;;;;;2.78;1.58;;;34.90;49.90;;;;;;5027082;28;20091;-80
2021/06/18 11:05:17;;;;;;;2.53;1.63;;;34.90;53.70;;;;;;5031438;28;20033;-80
2021/06/18 11:07:43;;;;;;;2.40;1.52;;;35.00;51.70;;;;;;5024490;28;20047;-80
2021/06/18 11:10:15;;;;;;;6.10;1.73;;;35.00;49.50;;;;;;5020784;28;20029;-83
2021/06/18 11:13:04;;;;;;;3.92;1.52;;;35.00;50.60;;;;;;5025427;28;20041;-80
2021/06/18 11:15:29;;;;;;;4.15;2.00;;;35.10;51.10;;;;;;5027628;28;20309;-78
2021/06/18 11:18:11;;;;;;;4.18;1.40;;;35.20;52.20;;;;;;5027007;28;20044;-79
2021/06/18 11:20:36;;;;;;;5.47;1.48;;;35.20;49.80;;;;;;5041877;28;20128;-79
2021/06/18 11:23:10;;;;;;;4.82;1.70;;;35.30;52.50;;;;;;5031402;28;20095;-80
2021/06/18 11:25:41;;;;;;;2.55;1.60;;;35.40;49.90;;;;;;5026368;28;20172;-80
2021/06/18 11:28:19;;;;;;;;;;;35.50;49.40;;;;;;5030228;28;20596;-81
2021/06/18 11:30:59;;;;;;;2.35;1.30;;;35.60;49.40;;;;;;5021408;28;20011;-81
2021/06/18 11:33:45;;;;;;;2.38;1.83;;;35.70;50.10;;;;;;5029006;28;20044;-82
2021/06/18 11:36:17;;;;;;;3.00;2.13;;;35.80;50.00;;;;;;5028169;28;20075;-82
2021/06/18 11:38:48;;;;;;;1.30;1.15;;;35.80;49.20;;;;;;5033176;28;20061;-82
2021/06/18 11:41:18;;;;;;;3.87;1.90;;;35.90;52.10;;;;;;5026448;28;20045;-82
2021/06/18 11:43:44;;;;;;;3.50;1.38;;;35.90;49.10;;;;;;5024950;28;20049;-82
2021/06/18 11:46:10;;;;;;;3.40;1.40;;;35.90;46.40;;;;;;5027718;28;20120;-81
2021/06/18 11:48:37;;;;;;;5.10;1.40;;;35.80;48.40;;;;;;5030573;28;20432;-81
2021/06/18 11:51:03;;;;;;;2.00;1.60;;;35.80;46.50;;;;;;5019190;28;20444;-83
2021/06/18 11:53:39;;;;;;;3.50;1.42;;;35.90;46.20;;;;;;5030557;28;20037;-80
2021/06/18 11:56:06;;;;;;;1.95;1.67;;;35.90;46.50;;;;;;5028020;28;20048;-82
2021/06/18 11:58:33;;;;;;;2.78;1.75;;;36.00;46.00;;;;;;5022698;28;20049;-82
2021/06/18 12:01:14;;;;;;;3.67;1.52;;;35.90;47.00;;;;;;5014711;28;20048;-81
2021/06/18 12:03:41;;;;;;;2.75;1.63;;;35.90;49.70;;;;;;5027867;28;20041;-82
2021/06/18 12:06:20;;;;;;;3.83;1.40;;;35.90;49.50;;;;;;5027579;28;20054;-82
2021/06/18 12:09:18;;;;;;;4.85;1.67;;;35.90;45.10;;;;;;5023985;28;20056;-83
2021/06/18 12:12:02;;;;;;;4.25;1.52;;;35.90;45.20;;;;;;5021029;28;20583;-82
2021/06/18 12:14:36;;;;;;;2.13;1.50;;;36.00;45.00;;;;;;5022033;28;20029;-80
2021/06/18 12:17:04;;;;;;;3.47;1.65;;;35.90;47.10;;;;;;5033574;28;20042;-79
2021/06/18 12:19:43;;;;;;;2.08;1.42;;;35.80;45.10;;;;;;5024950;28;20124;-80
2021/06/18 12:22:15;;;;;;;2.58;1.83;;;35.70;45.70;;;;;;5023379;28;20042;-80
2021/06/18 12:24:46;;;;;;;1.45;1.30;;;35.70;46.90;;;;;;5031036;28;20045;-80
2021/06/18 12:27:29;;;;;;;1.88;1.40;;;35.80;48.00;;;;;;5023515;28;20410;-80
2021/06/18 12:30:04;;;;;;;3.20;1.63;;;35.90;47.20;;;;;;5051490;28;20045;-79
2021/06/18 12:32:32;;;;;;;3.50;1.50;;;36.00;45.90;;;;;;5020258;28;20374;-80
2021/06/18 12:35:00;;;;;;;6.78;1.67;;;36.10;48.90;;;;;;5018057;28;20309;-79
2021/06/18 12:37:31;;;;;;;3.88;1.42;;;36.30;46.50;;;;;;5019246;28;20044;-79
2021/06/18 12:40:05;;;;;;;2.00;1.63;;;36.40;48.10;;;;;;5018470;28;20049;-79
2021/06/18 12:42:38;;;;;;;3.20;1.40;;;36.50;46.10;;;;;;5026310;28;20064;-81
2021/06/18 12:45:18;;;;;;;3.47;1.42;;;36.50;45.40;;;;;;5026211;28;20041;-78
2021/06/18 12:48:08;;;;;;;2.80;1.88;;;36.50;45.70;;;;;;5022119;28;20048;-79
2021/06/18 12:50:36;;;;;;;2.38;1.75;;;36.50;46.60;;;;;;5024319;28;20033;-79
2021/06/18 12:53:07;;;;;;;2.67;1.58;;;36.50;46.30;;;;;;5022032;28;20037;-80
2021/06/18 12:55:40;;;;;;;5.25;2.40;;;36.40;47.10;;;;;;5020513;28;20398;-80
2021/06/18 12:58:05;;;;;;;4.30;1.40;;;36.50;46.30;;;;;;5016728;28;20417;-80